Americus, GA

1:41 PM EDT on July 23, 2014 (GMT -0400)
Wildwood Circle (KGAAMERI2) Elev 402 ft | 32.06 °N, 84.21 °W | Change Station

Current weather conditions updated 11 minutes ago

Overcast
Overcast
92.5 °F
Feels Like 99 °F
N
0.4
Wind Variable Wind from SSW
Gusts 4.5 mph

Today is forecast to be Warmer than yesterday.

Today
High -- | Low -- °F
--% Chance of Precip.
Yesterday
High -- | Low -- °F
Precip. -- in
6:46 AM 8:40 PM
Waning Crescent, 9% visible
Pressure 30.08 in
Visibility 10.0 miles
Clouds Mostly Cloudy 3500 ft
Overcast 4700 ft
Heat Index 99 °F
Dew Point 71 °F
Humidity 49%
Rainfall 0.00 in
Snow Depth Not available.
UV 4 out of 12
Pollen 3.90 out of 12
Air Quality Not available.
Flu Activity Not available.
METAR KACJ 231735Z AUTO 30004KT 10SM BKN035 OVC047 30/21 A3008 RMK AO2

More Conditions Fewer Conditions

Pressure 30.08 in
Visibility 10.0 miles
Clouds Mostly Cloudy 3500 ft
Overcast 4700 ft
Heat Index 99 °F
Dew Point 71 °F
Humidity 49%
Rainfall 0.00 in
Snow Depth Not available.
UV 4 out of 12
Pollen 3.90 out of 12
Air Quality Not available.
Flu Activity Not available.
METAR KACJ 231735Z AUTO 30004KT 10SM BKN035 OVC047 30/21 A3008 RMK AO2

More Conditions Fewer Conditions

10-Day Weather Forecast

Almanac

Astronomy

Jul. 23, 2014 Rise Set
Actual Time 6:46 AM EDT 8:40 PM EDT
Civil Twilight 6:19 AM EDT 9:07 PM EDT
Nautical Twilight 5:46 AM EDT 9:40 PM EDT
Astronomical Twilight 5:11 AM EDT 10:15 PM EDT
Moon 4:03 AM EDT 6:09 PM EDT
Length of Visible Light 14h 48m
Length of Day
13h 53m
Tomorrow will be 1m 14s shorter.
Waning Crescent, 9% of the Moon is Illuminated
Today
Waning Crescent
Jul 26
New
Aug 3
First Quarter
Aug 10
Full
Aug 17
Last Quarter

Today's Extremes

State Highs State Lows

Community

WunderPhotos

Upload Photos

1,736,689 photos uploaded!

Nearby

Snow Depth

Station Depth Elevation
No new snow has been reported.

Earthquake Activity

City Distance Mag. Time & Date
No recent earthquake activity has been reported nearby.
Minimum magnitude displayed is 2.5.

Coastal Water Temperatures

Place Temperature
No Stations Reporting

Nearby Weather Stations

Station Location Temp. Heat Index Dew Point Humidity Wind Precip. Elev Updated Type
Wildwood Circle, Americus, GA 92.5 °F 99 °F 71 °F 49% SSW  at  0.4 mph 0.00 in / hr 402 ft 1:30 PM EDT Normal
RAWS AMERICUS/PLAINS GA, Americus, GA 88 °F 95 °F 72 °F 59% South  at  5 mph 0.00 in / hr 456 ft 1:03 PM EDT MADIS
Cobb, Cobb, GA 89.6 °F 100 °F 75 °F 62% ESE  at  3.0 mph 0.00 in / hr 285 ft 1:41 PM EDT Normal

Show More Stations Show Fewer Stations